Terminal Aerodrome Forecast
Issued by NWS Twin Cities, MN

Home | Current Version | Previous Version | Graphics & Text | Print | Product List | Glossary On
Versions: 1 2 3 4 5 6 7 8 9 10 11 12 13 14 15 16 17 18 19 20 21 22 23 24 25 26
000
FTUS43 KMPX 262056 AAA
TAFMSP
TAF AMD
KMSP 262056Z 2621/2724 32009KT P6SM SCT060
     FM270100 28004KT P6SM SKC
     FM271500 21010KT P6SM SCT250
     FM271800 20014G22KT P6SM BKN250=

USA.gov is the U.S. government's official web portal to all federal, state and local government web resources and services.